Time;durP1;ratioP1;P1;durP2;ratioP2;P2;SDS_P1;SDS_P2;PMS_P1;PMS_P2;Temp;Humidity;BMP_temperature;BMP_pressure;BME280_temperature;BME280_humidity;BME280_pressure;Samples;Min_cycle;Max_cycle;Signal;HPM_P1;HPM_P2
2022/07/21 00:01:30;;;;;;;23.35;13.20;;;21.00;99.90;;;;;;6201109;28;20558;-78
2022/07/21 00:04:31;;;;;;;22.17;13.98;;;21.10;99.90;;;;;;6200757;28;20042;-78
2022/07/21 00:07:33;;;;;;;21.08;13.77;;;21.10;99.90;;;;;;6201965;28;20061;-80
2022/07/21 00:10:35;;;;;;;20.27;12.77;;;21.10;99.90;;;;;;6200826;28;20133;-79
2022/07/21 00:13:38;;;;;;;18.02;12.43;;;21.10;99.90;;;;;;6200837;28;20038;-79
2022/07/21 00:16:42;;;;;;;18.95;12.27;;;21.20;99.90;;;;;;6200641;28;20045;-78
2022/07/21 00:19:44;;;;;;;21.27;12.23;;;21.10;99.90;;;;;;6201300;28;20058;-79
2022/07/21 00:22:46;;;;;;;26.80;12.55;;;21.10;99.90;;;;;;6200207;28;20057;-78
2022/07/21 00:25:47;;;;;;;23.33;12.68;;;21.00;99.90;;;;;;6200467;28;20141;-79
2022/07/21 00:28:51;;;;;;;19.70;12.23;;;21.00;99.90;;;;;;6200759;28;20053;-78
2022/07/21 00:31:52;;;;;;;15.35;10.68;;;21.00;99.90;;;;;;6200433;28;20058;-80
2022/07/21 00:34:54;;;;;;;16.85;10.35;;;21.00;99.90;;;;;;6200603;28;20042;-78
2022/07/21 00:37:56;;;;;;;19.85;11.73;;;21.00;99.90;;;;;;6200721;28;20053;-79
2022/07/21 00:40:58;;;;;;;15.68;11.35;;;21.00;99.90;;;;;;6200016;28;20046;-77
2022/07/21 00:44:01;;;;;;;14.93;10.85;;;21.10;99.90;;;;;;6200355;28;20126;-79
2022/07/21 00:47:03;;;;;;;17.50;10.23;;;21.10;99.90;;;;;;6200262;28;20416;-79
2022/07/21 00:50:08;;;;;;;18.98;10.45;;;21.10;99.90;;;;;;6201018;28;20423;-77
2022/07/21 00:53:09;;;;;;;17.00;10.15;;;21.00;99.90;;;;;;6198026;28;20420;-76
2022/07/21 00:56:12;;;;;;;21.42;10.90;;;21.00;99.90;;;;;;6191688;28;20055;-79
2022/07/21 00:59:16;;;;;;;17.60;11.13;;;20.90;99.90;;;;;;6200849;28;20073;-79
2022/07/21 01:02:17;;;;;;;14.90;9.88;;;20.90;99.90;;;;;;6199733;28;20050;-79
2022/07/21 01:05:20;;;;;;;19.27;12.15;;;20.90;99.90;;;;;;6199928;28;20065;-80
2022/07/21 01:08:21;;;;;;;15.57;10.18;;;20.90;99.90;;;;;;6200744;28;20053;-79
2022/07/21 01:11:25;;;;;;;18.20;9.80;;;20.90;99.90;;;;;;6200350;28;20062;-79
2022/07/21 01:14:28;;;;;;;13.20;9.68;;;20.90;99.90;;;;;;6200305;28;20046;-79
2022/07/21 01:17:30;;;;;;;13.85;10.40;;;20.90;99.90;;;;;;6200310;28;20484;-79
2022/07/21 01:20:35;;;;;;;13.77;9.50;;;20.90;99.90;;;;;;6200125;28;20050;-79
2022/07/21 01:23:38;;;;;;;16.08;10.57;;;20.90;99.90;;;;;;6200675;28;20057;-79
2022/07/21 01:26:44;;;;;;;15.15;10.23;;;20.90;99.90;;;;;;6200204;28;20054;-77
2022/07/21 01:29:45;;;;;;;15.15;9.38;;;20.80;99.90;;;;;;6200759;28;20042;-79
2022/07/21 01:32:47;;;;;;;13.93;9.15;;;20.90;99.90;;;;;;6200957;28;20038;-79
2022/07/21 01:35:49;;;;;;;19.77;10.02;;;20.90;99.90;;;;;;6200886;28;20046;-79
2022/07/21 01:42:12;;;;;;;14.43;9.90;;;21.20;99.90;;;;;;6199976;28;20050;-79
2022/07/21 01:45:13;;;;;;;13.18;9.73;;;21.30;99.90;;;;;;6204214;28;20050;-80
2022/07/21 01:48:15;;;;;;;15.48;9.00;;;21.30;99.90;;;;;;6206781;28;20505;-78
2022/07/21 01:51:17;;;;;;;15.23;10.00;;;21.40;99.90;;;;;;6206916;28;20054;-79
2022/07/21 01:54:20;;;;;;;14.20;9.90;;;21.40;99.90;;;;;;6205907;28;20061;-80
2022/07/21 01:57:22;;;;;;;12.88;8.85;;;21.50;99.90;;;;;;6205412;28;20424;-79
2022/07/21 02:00:23;;;;;;;15.63;9.30;;;21.50;99.90;;;;;;6205003;28;20054;-78
2022/07/21 02:03:25;;;;;;;11.48;9.60;;;21.60;99.90;;;;;;6205478;28;20061;-79
2022/07/21 02:06:28;;;;;;;12.32;9.18;;;21.60;99.90;;;;;;6204708;28;20069;-80
2022/07/21 02:09:31;;;;;;;15.88;9.73;;;21.60;99.90;;;;;;6204433;28;20053;-78
2022/07/21 02:12:32;;;;;;;17.38;9.38;;;21.60;99.90;;;;;;6204656;28;20062;-80
2022/07/21 02:15:34;;;;;;;13.10;8.30;;;21.60;99.90;;;;;;6204507;28;20046;-80
2022/07/21 02:18:37;;;;;;;12.18;7.80;;;21.60;99.90;;;;;;6204263;28;20046;-80
2022/07/21 02:21:38;;;;;;;10.82;8.15;;;21.50;99.90;;;;;;6203562;28;20050;-79
2022/07/21 02:24:41;;;;;;;13.38;9.35;;;21.50;99.90;;;;;;6203589;28;20048;-79
2022/07/21 02:27:44;;;;;;;13.70;7.88;;;21.60;99.90;;;;;;6204066;28;20046;-80
2022/07/21 02:30:46;;;;;;;8.43;6.90;;;21.70;99.90;;;;;;6202937;28;20049;-79
2022/07/21 02:33:48;;;;;;;9.25;6.93;;;21.70;99.90;;;;;;6203736;28;20046;-80
2022/07/21 02:36:50;;;;;;;9.20;6.75;;;21.80;99.90;;;;;;6203433;28;20069;-79
2022/07/21 02:39:53;;;;;;;13.80;6.72;;;21.70;99.90;;;;;;6203741;28;20058;-79
2022/07/21 02:42:54;;;;;;;9.07;6.10;;;21.70;99.90;;;;;;6203722;28;20049;-79
2022/07/21 02:45:56;;;;;;;10.82;7.00;;;21.70;99.90;;;;;;6203180;28;20533;-79
2022/07/21 02:48:58;;;;;;;12.90;7.60;;;21.70;99.90;;;;;;6203200;28;20512;-79
2022/07/21 02:52:00;;;;;;;11.52;7.43;;;21.70;99.90;;;;;;6203362;28;20046;-80
2022/07/21 02:55:03;;;;;;;8.63;7.28;;;21.70;99.90;;;;;;6202693;28;20053;-79
2022/07/21 02:58:06;;;;;;;16.63;7.65;;;21.80;99.90;;;;;;6202760;28;20504;-80
2022/07/21 03:01:08;;;;;;;10.65;8.00;;;21.80;99.90;;;;;;6202502;28;20416;-79
2022/07/21 03:04:11;;;;;;;9.25;7.93;;;21.80;99.90;;;;;;6203117;28;20046;-79
2022/07/21 03:07:13;;;;;;;9.68;7.88;;;21.70;99.90;;;;;;6203304;28;20050;-80
2022/07/21 03:10:16;;;;;;;12.40;7.25;;;21.70;99.90;;;;;;6203744;28;20091;-80
2022/07/21 03:13:18;;;;;;;10.50;8.13;;;21.80;99.90;;;;;;6202459;28;20058;-80
2022/07/21 03:16:19;;;;;;;12.15;8.18;;;21.80;99.90;;;;;;6202885;28;20050;-80
2022/07/21 03:19:21;;;;;;;10.55;7.55;;;21.80;99.90;;;;;;6203486;28;20408;-78
2022/07/21 03:22:23;;;;;;;16.52;7.95;;;21.90;99.90;;;;;;6202987;28;20078;-78
2022/07/21 03:25:26;;;;;;;24.23;8.57;;;21.90;99.90;;;;;;6202323;28;20042;-80
2022/07/21 03:28:27;;;;;;;14.57;8.80;;;21.80;99.90;;;;;;6202769;28;20062;-80
2022/07/21 03:31:29;;;;;;;12.77;8.75;;;21.80;99.90;;;;;;6202763;28;20436;-76
2022/07/21 03:34:31;;;;;;;16.17;8.85;;;21.80;99.90;;;;;;6202393;28;20120;-75
2022/07/21 03:37:33;;;;;;;14.82;9.25;;;21.70;99.90;;;;;;6202654;28;20047;-77
2022/07/21 03:40:38;;;;;;;11.85;9.38;;;21.70;99.90;;;;;;6202413;28;20046;-77
2022/07/21 03:43:39;;;;;;;11.35;8.43;;;21.70;99.90;;;;;;6203762;28;20052;-77
2022/07/21 03:46:41;;;;;;;17.00;9.20;;;21.70;99.90;;;;;;6203171;28;20051;-78
2022/07/21 03:49:43;;;;;;;17.58;10.00;;;21.70;99.90;;;;;;6200584;28;20053;-79
2022/07/21 03:52:45;;;;;;;15.68;10.23;;;21.70;99.90;;;;;;6201562;28;20500;-78
2022/07/21 03:55:48;;;;;;;10.65;8.75;;;21.70;99.90;;;;;;6202997;28;20053;-78
2022/07/21 03:58:50;;;;;;;12.70;10.75;;;21.70;99.90;;;;;;6202844;28;20424;-77
2022/07/21 04:01:52;;;;;;;18.23;9.73;;;21.70;99.90;;;;;;6202051;28;20078;-78
2022/07/21 04:04:53;;;;;;;17.25;10.15;;;21.70;99.90;;;;;;6203184;28;20057;-77
2022/07/21 04:07:56;;;;;;;16.77;11.10;;;21.70;99.90;;;;;;6203618;28;20050;-77
2022/07/21 04:10:59;;;;;;;13.95;10.60;;;21.70;99.90;;;;;;6202917;28;20413;-77
2022/07/21 04:14:01;;;;;;;13.25;11.02;;;21.80;99.90;;;;;;6203211;28;20138;-76
2022/07/21 04:17:02;;;;;;;18.33;11.18;;;21.70;99.90;;;;;;6203349;28;20042;-78
2022/07/21 04:20:06;;;;;;;18.55;11.43;;;21.80;99.90;;;;;;6203396;28;20415;-77
2022/07/21 04:23:08;;;;;;;19.08;11.05;;;21.90;99.90;;;;;;6204555;28;20065;-75
2022/07/21 04:26:11;;;;;;;17.70;11.05;;;21.90;99.90;;;;;;6202148;28;20055;-77
2022/07/21 04:29:12;;;;;;;14.00;11.15;;;21.90;99.90;;;;;;6201021;28;20053;-77
2022/07/21 04:32:14;;;;;;;17.00;12.57;;;22.00;99.90;;;;;;6200489;28;20552;-77
2022/07/21 04:35:16;;;;;;;17.08;11.82;;;22.00;99.90;;;;;;6201671;28;20054;-77
2022/07/21 04:38:18;;;;;;;15.07;10.52;;;22.10;99.90;;;;;;6201208;28;20046;-76
2022/07/21 04:41:21;;;;;;;15.68;11.75;;;22.20;99.90;;;;;;6200914;28;20057;-76
2022/07/21 04:44:23;;;;;;;19.50;11.57;;;22.30;99.90;;;;;;6200431;28;20081;-77
2022/07/21 04:47:25;;;;;;;15.65;10.90;;;22.30;99.90;;;;;;6201214;28;20050;-77
2022/07/21 04:50:28;;;;;;;12.43;10.35;;;22.40;99.90;;;;;;6200214;28;20046;-77
2022/07/21 04:53:30;;;;;;;18.67;11.60;;;22.50;99.90;;;;;;6199577;28;20053;-77
2022/07/21 04:56:34;;;;;;;12.15;9.73;;;22.70;99.90;;;;;;6200725;28;20046;-77
2022/07/21 04:59:36;;;;;;;20.92;11.00;;;22.80;99.90;;;;;;6203013;28;20073;-76
2022/07/21 05:02:38;;;;;;;12.88;10.07;;;23.30;99.90;;;;;;6201614;28;20396;-77
2022/07/21 05:05:40;;;;;;;10.98;9.10;;;24.10;99.90;;;;;;6200228;28;20050;-77
2022/07/21 05:08:41;;;;;;;11.80;9.35;;;24.30;99.90;;;;;;6200620;28;20496;-77
2022/07/21 05:11:44;;;;;;;20.30;10.38;;;24.00;99.90;;;;;;6200346;28;20504;-75
2022/07/21 05:14:46;;;;;;;11.95;9.52;;;23.70;99.90;;;;;;6200720;28;20520;-77
2022/07/21 05:17:48;;;;;;;15.00;9.77;;;23.50;99.90;;;;;;6199867;28;20043;-77
2022/07/21 05:20:49;;;;;;;17.45;10.27;;;23.40;99.90;;;;;;6208768;28;20046;-76
2022/07/21 05:23:51;;;;;;;12.18;10.10;;;23.30;99.90;;;;;;6213315;28;20058;-77
2022/07/21 05:26:54;;;;;;;13.43;10.10;;;23.20;99.90;;;;;;6207983;28;20531;-77
2022/07/21 05:29:56;;;;;;;11.82;9.35;;;23.20;99.90;;;;;;6206578;28;20046;-76
2022/07/21 05:32:58;;;;;;;18.95;10.13;;;23.20;99.90;;;;;;6205296;28;20046;-77
2022/07/21 05:35:59;;;;;;;11.27;9.60;;;23.20;99.90;;;;;;6206691;28;20046;-77
2022/07/21 05:39:01;;;;;;;15.20;9.63;;;23.40;99.90;;;;;;6203559;28;20543;-76
2022/07/21 05:42:04;;;;;;;14.73;9.68;;;23.40;99.90;;;;;;6200881;28;20605;-76
2022/07/21 05:45:07;;;;;;;13.45;9.32;;;23.50;99.90;;;;;;6201025;28;20042;-76
2022/07/21 05:48:09;;;;;;;18.33;9.00;;;23.40;99.90;;;;;;6201076;28;20062;-77
2022/07/21 05:51:11;;;;;;;11.60;9.00;;;23.40;99.90;;;;;;6201008;28;20451;-76
2022/07/21 05:54:12;;;;;;;15.10;10.10;;;23.50;99.90;;;;;;6201224;28;20049;-76
2022/07/21 05:57:15;;;;;;;10.68;8.93;;;23.60;99.90;;;;;;6201076;28;20050;-76
2022/07/21 06:00:17;;;;;;;10.80;8.30;;;24.60;99.90;;;;;;6200889;28;20057;-75
2022/07/21 06:03:19;;;;;;;14.23;8.55;;;26.00;99.90;;;;;;6200474;28;20050;-76
2022/07/21 06:06:23;;;;;;;10.48;9.07;;;27.70;97.30;;;;;;6200123;28;20416;-76
2022/07/21 06:09:24;;;;;;;13.40;7.63;;;28.80;93.30;;;;;;6200618;28;20050;-76
2022/07/21 06:12:27;;;;;;;18.67;7.70;;;29.10;93.30;;;;;;6176477;28;20496;-76
2022/07/21 06:15:29;;;;;;;12.75;7.85;;;31.50;90.30;;;;;;6200577;28;20058;-76
2022/07/21 06:18:31;;;;;;;8.45;6.50;;;33.70;78.00;;;;;;6197382;28;20046;-77
2022/07/21 06:21:33;;;;;;;10.85;6.72;;;35.30;70.00;;;;;;6202821;28;20053;-76
2022/07/21 06:24:34;;;;;;;10.40;6.95;;;34.70;67.50;;;;;;6201964;28;20053;-76
2022/07/21 06:27:37;;;;;;;7.95;6.13;;;32.50;71.30;;;;;;6200339;28;20572;-76
2022/07/21 06:30:39;;;;;;;11.10;6.72;;;30.60;76.90;;;;;;6196336;28;20050;-76
2022/07/21 06:33:41;;;;;;;10.38;6.68;;;29.30;82.60;;;;;;6187251;28;20058;-76
2022/07/21 06:36:43;;;;;;;12.52;6.30;;;28.50;86.30;;;;;;6174326;28;20054;-76
2022/07/21 06:39:45;;;;;;;9.88;5.70;;;27.80;90.40;;;;;;6176061;28;20183;-76
2022/07/21 06:42:48;;;;;;;12.88;5.88;;;27.50;91.50;;;;;;6197894;28;20057;-76
2022/07/21 06:45:50;;;;;;;9.48;5.50;;;27.20;91.50;;;;;;6197831;28;20042;-76
2022/07/21 06:48:52;;;;;;;12.43;5.60;;;26.90;92.60;;;;;;6198011;28;20053;-76
2022/07/21 06:51:53;;;;;;;9.15;4.88;;;26.70;92.90;;;;;;6198134;28;20050;-76
2022/07/21 06:54:55;;;;;;;6.60;5.00;;;26.50;93.00;;;;;;6197833;28;20054;-76
2022/07/21 06:57:58;;;;;;;8.43;5.68;;;26.10;94.00;;;;;;6198021;28;20057;-78
2022/07/21 07:01:00;;;;;;;8.52;5.32;;;25.80;94.50;;;;;;6197922;28;20113;-76
2022/07/21 07:04:02;;;;;;;8.07;5.85;;;25.60;95.10;;;;;;6198374;28;20057;-76
2022/07/21 07:07:04;;;;;;;9.00;5.95;;;25.30;95.70;;;;;;6197566;28;20053;-76
2022/07/21 07:10:06;;;;;;;8.20;6.10;;;25.20;96.10;;;;;;6191937;28;20042;-76
2022/07/21 07:13:11;;;;;;;10.45;5.53;;;25.00;96.70;;;;;;6204205;28;20054;-77
2022/07/21 07:16:14;;;;;;;8.65;5.80;;;25.00;97.30;;;;;;6197367;28;20058;-76
2022/07/21 07:19:15;;;;;;;9.07;5.63;;;25.00;97.10;;;;;;6197393;28;20054;-76
2022/07/21 07:22:17;;;;;;;11.30;5.65;;;25.00;97.30;;;;;;6197138;28;20054;-76
2022/07/21 07:25:19;;;;;;;12.55;6.00;;;25.10;97.30;;;;;;6197538;28;20409;-76
2022/07/21 07:28:22;;;;;;;8.15;5.15;;;25.10;97.00;;;;;;6197156;28;20050;-76
2022/07/21 07:31:24;;;;;;;6.07;4.38;;;25.30;97.00;;;;;;6196904;28;20050;-76
2022/07/21 07:34:25;;;;;;;11.32;5.00;;;25.50;96.60;;;;;;6193004;28;20042;-76
2022/07/21 07:37:27;;;;;;;9.43;5.03;;;25.60;95.50;;;;;;6197367;28;20054;-76
2022/07/21 07:40:29;;;;;;;8.02;4.78;;;25.50;94.90;;;;;;6196787;28;20057;-76
2022/07/21 07:43:32;;;;;;;9.90;5.25;;;25.50;94.50;;;;;;6196293;28;20043;-76
2022/07/21 07:46:34;;;;;;;8.73;4.57;;;25.60;94.70;;;;;;6196870;28;20047;-77
2022/07/21 07:49:36;;;;;;;5.28;4.60;;;25.80;94.60;;;;;;6196683;28;20072;-76
2022/07/21 07:52:38;;;;;;;4.70;4.18;;;25.80;94.00;;;;;;6196614;28;20061;-76
2022/07/21 07:55:40;;;;;;;7.93;4.68;;;26.00;94.70;;;;;;6196954;28;20042;-77
2022/07/21 07:58:43;;;;;;;9.48;4.75;;;26.40;93.80;;;;;;6197256;28;20068;-77
2022/07/21 08:01:45;;;;;;;6.70;3.90;;;26.80;92.00;;;;;;6196504;28;20050;-76
2022/07/21 08:04:47;;;;;;;8.02;4.60;;;27.00;92.80;;;;;;6197075;28;20061;-76
2022/07/21 08:07:48;;;;;;;6.85;4.65;;;27.20;92.20;;;;;;6196114;28;20069;-76
2022/07/21 08:10:50;;;;;;;7.63;4.97;;;27.40;91.70;;;;;;6196167;28;20410;-77
2022/07/21 08:13:53;;;;;;;5.70;4.28;;;27.60;90.80;;;;;;6196178;28;20536;-77
2022/07/21 08:16:58;;;;;;;12.18;4.35;;;27.50;89.30;;;;;;6196754;28;20046;-76
2022/07/21 08:20:00;;;;;;;9.93;5.45;;;27.40;90.30;;;;;;6196260;28;20057;-77
2022/07/21 08:23:02;;;;;;;5.60;4.57;;;27.20;90.00;;;;;;6195454;28;20094;-76
2022/07/21 08:26:04;;;;;;;12.40;5.07;;;27.00;90.90;;;;;;6196186;28;20527;-77
2022/07/21 08:29:07;;;;;;;7.13;4.85;;;26.90;90.50;;;;;;6196764;28;20046;-76
2022/07/21 08:32:09;;;;;;;16.15;5.13;;;27.00;90.20;;;;;;6195593;28;20046;-77
2022/07/21 08:35:11;;;;;;;8.00;4.97;;;27.00;90.40;;;;;;6191887;28;20136;-77
2022/07/21 08:38:13;;;;;;;7.20;4.45;;;26.80;90.70;;;;;;6196071;28;20500;-77
2022/07/21 08:41:14;;;;;;;6.20;4.38;;;26.60;91.00;;;;;;6196451;28;20054;-76
2022/07/21 08:44:17;;;;;;;9.85;5.40;;;26.60;91.50;;;;;;6195775;28;20405;-77
2022/07/21 08:47:19;;;;;;;6.88;4.75;;;26.90;91.60;;;;;;6196071;28;20053;-77
2022/07/21 08:50:23;;;;;;;10.98;5.38;;;27.20;91.70;;;;;;6195719;28;20523;-76
2022/07/21 08:53:26;;;;;;;9.60;4.95;;;27.30;89.20;;;;;;6197400;28;20050;-77
2022/07/21 08:56:28;;;;;;;13.50;6.32;;;27.30;90.10;;;;;;6202771;28;20090;-77
2022/07/21 08:59:31;;;;;;;9.68;5.03;;;27.60;89.40;;;;;;6202099;28;20424;-77
2022/07/21 09:02:35;;;;;;;7.13;4.35;;;27.90;89.50;;;;;;6201353;28;20047;-76
2022/07/21 09:05:36;;;;;;;4.00;3.42;;;28.30;85.50;;;;;;6200767;28;20053;-76
2022/07/21 09:08:41;;;;;;;6.03;3.28;;;28.30;81.80;;;;;;6201289;28;20062;-76
2022/07/21 09:11:45;;;;;;;7.90;3.35;;;28.40;81.50;;;;;;6181178;28;20047;-76
2022/07/21 09:14:49;;;;;;;5.57;3.17;;;28.70;81.00;;;;;;6176268;28;20059;-77
2022/07/21 09:18:06;;;;;;;5.35;3.13;;;29.10;78.60;;;;;;6177066;28;20477;-76
2022/07/21 09:21:11;;;;;;;5.30;3.53;;;29.20;76.60;;;;;;6200987;28;20046;-76
2022/07/21 09:24:18;;;;;;;5.18;3.13;;;29.40;77.60;;;;;;6200530;28;20046;-76
2022/07/21 09:27:23;;;;;;;5.10;3.10;;;29.50;75.80;;;;;;6201184;28;20053;-77
2022/07/21 09:30:26;;;;;;;6.45;3.25;;;29.30;72.40;;;;;;6200122;28;20294;-76
2022/07/21 09:33:32;;;;;;;9.70;3.95;;;29.00;73.10;;;;;;6200594;28;20054;-76
2022/07/21 09:36:33;;;;;;;5.43;3.28;;;29.00;73.50;;;;;;6212185;28;20038;-77
2022/07/21 09:39:42;;;;;;;6.45;2.97;;;29.40;73.70;;;;;;6221427;28;20056;-77
2022/07/21 09:42:48;;;;;;;5.97;3.17;;;29.40;70.10;;;;;;6223985;28;20046;-77
2022/07/21 09:45:51;;;;;;;4.07;3.67;;;29.20;70.80;;;;;;6224831;28;20076;-76
2022/07/21 09:48:56;;;;;;;3.72;2.72;;;29.10;70.00;;;;;;6215789;28;20061;-76
2022/07/21 09:51:58;;;;;;;6.35;3.45;;;28.90;71.50;;;;;;6199937;28;20120;-77
2022/07/21 09:55:02;;;;;;;7.15;3.95;;;29.10;71.20;;;;;;6200082;28;20527;-77
2022/07/21 09:58:04;;;;;;;7.32;3.15;;;29.50;69.80;;;;;;6200978;28;20050;-78
2022/07/21 10:01:07;;;;;;;3.78;2.20;;;29.80;69.30;;;;;;6201016;28;20347;-76
2022/07/21 10:04:09;;;;;;;5.35;2.65;;;30.20;66.50;;;;;;6199257;28;20046;-77
2022/07/21 10:07:11;;;;;;;6.65;2.85;;;30.40;63.60;;;;;;6200610;28;20400;-77
2022/07/21 10:10:14;;;;;;;4.15;2.70;;;30.70;63.00;;;;;;6200611;28;20053;-77
2022/07/21 10:13:16;;;;;;;5.20;3.60;;;31.50;62.10;;;;;;6200488;28;20054;-77
2022/07/21 10:16:19;;;;;;;5.13;3.10;;;32.50;59.80;;;;;;6200014;28;20050;-76
2022/07/21 10:19:27;;;;;;;4.05;2.78;;;33.40;57.10;;;;;;6199857;28;20050;-76
2022/07/21 10:22:49;;;;;;;4.70;2.92;;;33.40;55.60;;;;;;6199680;28;20048;-77
2022/07/21 10:25:51;;;;;;;6.72;2.83;;;33.10;55.20;;;;;;6200816;28;20515;-76
2022/07/21 10:28:52;;;;;;;5.28;2.22;;;32.80;55.30;;;;;;6200569;28;20058;-77
2022/07/21 10:32:11;;;;;;;4.88;1.90;;;32.30;55.40;;;;;;6200101;28;20054;-76
2022/07/21 10:35:28;;;;;;;2.65;1.63;;;32.10;54.50;;;;;;6199504;28;20046;-77
2022/07/21 10:38:32;;;;;;;5.20;1.95;;;32.30;54.50;;;;;;6201362;28;20221;-77
2022/07/21 10:41:39;;;;;;;2.75;1.60;;;32.40;54.10;;;;;;6198549;28;20050;-76
2022/07/21 10:44:50;;;;;;;4.07;1.55;;;32.40;52.60;;;;;;6201080;28;20047;-77
2022/07/21 10:47:54;;;;;;;3.63;1.83;;;32.70;51.60;;;;;;6200692;28;20038;-76
2022/07/21 10:50:58;;;;;;;2.50;1.45;;;32.90;50.40;;;;;;6200718;28;20052;-76
2022/07/21 10:54:20;;;;;;;4.05;1.65;;;32.90;49.90;;;;;;6200574;28;20049;-77
2022/07/21 10:57:29;;;;;;;1.70;1.05;;;33.00;48.80;;;;;;6200861;28;20051;-76
2022/07/21 11:00:36;;;;;;;1.73;1.20;;;33.10;47.70;;;;;;6201076;28;20129;-77
2022/07/21 11:03:40;;;;;;;1.23;0.88;;;33.00;47.90;;;;;;6199754;28;20050;-77
2022/07/21 11:06:42;;;;;;;3.95;1.17;;;33.10;48.00;;;;;;6200421;28;20066;-77
2022/07/21 11:10:15;;;;;;;3.38;1.10;;;33.50;47.30;;;;;;6201489;28;20469;-79
2022/07/21 11:13:17;;;;;;;2.22;1.27;;;33.70;45.60;;;;;;6200207;28;20053;-76
2022/07/21 11:16:19;;;;;;;4.45;1.45;;;33.20;46.20;;;;;;6198933;28;20038;-77
2022/07/21 11:19:35;;;;;;;3.42;1.20;;;32.80;47.70;;;;;;6199536;28;20511;-76
2022/07/21 11:22:36;;;;;;;4.00;1.30;;;33.10;48.40;;;;;;6199620;28;20046;-77
2022/07/21 11:25:38;;;;;;;2.92;1.33;;;33.40;47.70;;;;;;6199286;28;20057;-76
2022/07/21 11:28:40;;;;;;;2.17;1.13;;;33.30;48.40;;;;;;6199270;28;20057;-77
2022/07/21 11:31:46;;;;;;;3.25;1.23;;;33.20;48.30;;;;;;6199433;28;20046;-76
2022/07/21 11:34:51;;;;;;;3.28;1.38;;;32.90;48.70;;;;;;6199011;28;20149;-77
2022/07/21 11:37:53;;;;;;;2.88;1.33;;;32.80;49.70;;;;;;6199397;28;20057;-76
2022/07/21 11:40:54;;;;;;;2.40;1.27;;;33.20;49.20;;;;;;6199982;28;20054;-76
2022/07/21 11:43:56;;;;;;;5.22;2.10;;;33.50;48.00;;;;;;6198466;28;20046;-77
2022/07/21 11:47:00;;;;;;;3.90;1.35;;;33.90;47.60;;;;;;6199381;28;20047;-77
2022/07/21 11:50:07;;;;;;;1.75;1.30;;;34.30;46.30;;;;;;6199394;28;20050;-77
2022/07/21 11:53:09;;;;;;;1.38;0.82;;;34.60;45.50;;;;;;6202477;28;20047;-77
2022/07/21 11:56:14;;;;;;;6.18;1.42;;;34.80;44.60;;;;;;6201923;28;20057;-77
2022/07/21 11:59:16;;;;;;;3.95;1.15;;;34.90;44.20;;;;;;6200297;28;20046;-77
2022/07/21 12:02:20;;;;;;;2.63;1.35;;;35.10;43.80;;;;;;6197993;28;20073;-77
2022/07/21 12:05:24;;;;;;;1.15;0.88;;;35.20;43.20;;;;;;6198414;28;20509;-77
2022/07/21 12:08:26;;;;;;;1.73;1.05;;;35.20;42.90;;;;;;6197634;28;20521;-77
2022/07/21 12:11:36;;;;;;;3.20;1.42;;;35.40;42.50;;;;;;6197452;28;20046;-77
2022/07/21 12:14:47;;;;;;;1.67;1.02;;;35.40;42.40;;;;;;6197976;28;20058;-77
2022/07/21 12:17:50;;;;;;;2.15;1.00;;;35.50;42.00;;;;;;6197794;28;20650;-77
2022/07/21 12:21:04;;;;;;;6.70;1.20;;;35.80;41.70;;;;;;6198516;28;20050;-77
2022/07/21 12:24:06;;;;;;;3.72;1.10;;;35.80;40.80;;;;;;6197938;28;20046;-77
2022/07/21 12:27:12;;;;;;;2.33;1.48;;;35.90;40.80;;;;;;6197410;28;20046;-77
2022/07/21 12:30:35;;;;;;;2.97;1.13;;;36.10;40.10;;;;;;6198177;28;20057;-77
2022/07/21 12:33:37;;;;;;;1.70;1.17;;;36.20;39.90;;;;;;6197595;28;20419;-77
2022/07/21 12:36:41;;;;;;;3.50;0.82;;;36.20;40.00;;;;;;6198085;28;20047;-77
2022/07/21 12:39:58;;;;;;;2.17;0.95;;;36.20;40.40;;;;;;6197787;28;20046;-77
2022/07/21 12:43:05;;;;;;;1.23;1.05;;;36.40;40.20;;;;;;6197639;28;20508;-77
2022/07/21 12:46:11;;;;;;;2.38;1.00;;;36.60;39.80;;;;;;6199992;28;20042;-77
2022/07/21 12:49:13;;;;;;;5.70;1.40;;;36.50;39.60;;;;;;6198320;28;20485;-77
2022/07/21 12:52:17;;;;;;;1.75;1.13;;;36.30;40.60;;;;;;6197609;28;20050;-77
2022/07/21 12:55:19;;;;;;;4.32;1.00;;;36.00;40.10;;;;;;6197321;28;20046;-77
2022/07/21 12:58:21;;;;;;;1.40;0.98;;;36.00;40.50;;;;;;6197487;28;20058;-76
2022/07/21 13:01:24;;;;;;;1.90;0.93;;;36.30;40.30;;;;;;6198265;28;20050;-77
2022/07/21 13:04:27;;;;;;;1.88;0.90;;;36.50;39.60;;;;;;6197479;28;20053;-77
2022/07/21 13:07:30;;;;;;;4.57;1.17;;;36.60;39.00;;;;;;6197339;28;20053;-77
2022/07/21 13:10:32;;;;;;;1.60;1.02;;;36.60;38.50;;;;;;6197811;28;20054;-77
2022/07/21 13:13:34;;;;;;;5.93;1.25;;;36.80;38.00;;;;;;6197215;28;20057;-77
2022/07/21 13:16:35;;;;;;;3.53;0.95;;;37.00;38.40;;;;;;6197741;28;20069;-77
2022/07/21 13:19:37;;;;;;;2.42;1.00;;;37.30;37.50;;;;;;6197709;28;20047;-77
2022/07/21 13:22:40;;;;;;;3.65;1.33;;;37.30;37.20;;;;;;6196860;28;20451;-77
2022/07/21 13:25:43;;;;;;;3.60;0.98;;;37.30;37.40;;;;;;6197285;28;20436;-78
2022/07/21 13:28:44;;;;;;;3.50;1.27;;;37.40;37.00;;;;;;6198085;28;20101;-77
2022/07/21 13:31:46;;;;;;;4.45;1.40;;;36.90;37.40;;;;;;6196756;28;20508;-77
2022/07/21 13:34:48;;;;;;;1.35;0.85;;;36.50;38.10;;;;;;6197507;28;20046;-77
2022/07/21 13:37:51;;;;;;;2.50;0.85;;;36.40;37.80;;;;;;6197766;28;22296;-77
2022/07/21 13:40:53;;;;;;;2.10;1.13;;;36.30;38.00;;;;;;6201221;28;20516;-77
2022/07/21 13:43:54;;;;;;;2.08;1.10;;;36.20;38.40;;;;;;6202179;28;20062;-76
2022/07/21 13:46:56;;;;;;;3.75;1.10;;;36.20;38.80;;;;;;6201914;28;20053;-77
2022/07/21 13:49:58;;;;;;;2.88;0.95;;;36.10;39.50;;;;;;6201284;28;20042;-77
2022/07/21 13:53:01;;;;;;;1.98;1.15;;;36.00;38.60;;;;;;6200773;28;20054;-77
2022/07/21 13:56:03;;;;;;;1.77;1.13;;;35.60;38.50;;;;;;6200606;28;20042;-77
2022/07/21 13:59:05;;;;;;;5.47;1.00;;;35.50;39.10;;;;;;6195523;28;20045;-77
2022/07/21 14:02:07;;;;;;;2.47;1.38;;;35.70;39.10;;;;;;6199321;28;20038;-77
2022/07/21 14:05:09;;;;;;;2.65;1.40;;;35.90;39.10;;;;;;6203842;28;20049;-77
2022/07/21 14:08:12;;;;;;;3.90;1.23;;;35.80;39.00;;;;;;6205802;28;20053;-77
2022/07/21 14:11:14;;;;;;;1.00;0.90;;;35.40;39.10;;;;;;6200288;28;20429;-77
2022/07/21 14:14:21;;;;;;;3.03;1.00;;;35.50;39.00;;;;;;6200199;28;20050;-77
2022/07/21 14:17:23;;;;;;;4.93;1.20;;;35.50;39.00;;;;;;6200602;28;20532;-77
2022/07/21 14:20:25;;;;;;;2.95;1.27;;;35.40;39.00;;;;;;6200108;28;20057;-78
2022/07/21 14:23:28;;;;;;;2.92;1.38;;;35.20;39.60;;;;;;6200062;28;20057;-76
2022/07/21 14:26:30;;;;;;;2.75;0.95;;;35.40;39.40;;;;;;6199722;28;20487;-77
2022/07/21 14:29:32;;;;;;;3.60;1.38;;;35.40;39.10;;;;;;6193248;28;20051;-77
2022/07/21 14:32:34;;;;;;;2.20;1.40;;;35.40;39.30;;;;;;6199286;28;20050;-77
2022/07/21 14:35:36;;;;;;;2.72;1.02;;;35.50;39.50;;;;;;6200079;28;20635;-77
2022/07/21 14:38:39;;;;;;;1.90;0.95;;;35.60;39.00;;;;;;6199644;28;20046;-76
2022/07/21 14:41:41;;;;;;;1.15;0.93;;;35.80;39.50;;;;;;6199784;28;20047;-77
2022/07/21 14:44:43;;;;;;;2.65;1.33;;;35.90;38.80;;;;;;6199952;28;20058;-77
2022/07/21 14:47:45;;;;;;;3.95;1.70;;;36.00;38.60;;;;;;6199376;28;20043;-77
2022/07/21 14:50:47;;;;;;;2.35;1.52;;;36.10;38.10;;;;;;6199055;28;20576;-77
2022/07/21 14:53:50;;;;;;;3.05;1.33;;;36.10;38.00;;;;;;6199407;28;20077;-77
2022/07/21 14:56:52;;;;;;;3.25;1.30;;;36.00;38.10;;;;;;6200292;28;20050;-77
2022/07/21 14:59:54;;;;;;;3.85;1.60;;;35.90;38.10;;;;;;6199640;28;20046;-77
2022/07/21 15:02:56;;;;;;;2.25;1.15;;;35.80;37.90;;;;;;6199577;28;20046;-77
2022/07/21 15:05:57;;;;;;;1.52;1.30;;;35.90;37.90;;;;;;6199258;28;20042;-77
2022/07/21 15:09:00;;;;;;;3.55;1.88;;;35.90;37.80;;;;;;6199858;28;20115;-77
2022/07/21 15:12:02;;;;;;;5.15;1.52;;;35.80;38.10;;;;;;6199140;28;20057;-77
2022/07/21 15:15:05;;;;;;;3.20;1.67;;;35.50;38.60;;;;;;6199193;28;20532;-77
2022/07/21 15:18:08;;;;;;;2.10;1.70;;;35.40;38.70;;;;;;6193213;28;20057;-77
2022/07/21 15:21:10;;;;;;;2.25;1.00;;;35.10;38.90;;;;;;6201979;28;20046;-77
2022/07/21 15:24:15;;;;;;;2.10;1.30;;;34.90;39.10;;;;;;6194941;28;20057;-77
2022/07/21 15:27:18;;;;;;;5.47;1.92;;;34.80;39.70;;;;;;6197361;28;20058;-77
2022/07/21 15:30:20;;;;;;;4.38;1.50;;;34.60;39.80;;;;;;6198038;28;20065;-77
2022/07/21 15:33:21;;;;;;;3.45;1.70;;;34.50;40.00;;;;;;6199812;28;20053;-78
2022/07/21 15:36:23;;;;;;;3.20;1.30;;;34.30;40.90;;;;;;6196247;28;20708;-77
2022/07/21 15:39:26;;;;;;;4.63;1.70;;;34.10;41.10;;;;;;6196613;28;20053;-78
2022/07/21 15:42:30;;;;;;;5.35;2.28;;;34.00;41.70;;;;;;6196427;28;20405;-77
2022/07/21 15:45:32;;;;;;;2.78;1.85;;;33.90;41.80;;;;;;6197034;28;20050;-77
2022/07/21 15:48:34;;;;;;;4.03;2.55;;;33.80;42.10;;;;;;6196884;28;20049;-77